Nearby METAR Reports

 

KDLS - The Dalles, Oregon, USA
Distance from station: NNE 2mi, 3km
Updated: Mon, 24-Jun-2024 12:53pm PDT
Clear
Clear
 Wind from NNW
Wind: NNW 16 mph, 26 km/h
Temperature: 79°F, 26°C
Dew Point: 43°F, 6°C
Humidity: 28%
Barometer: 29.97 inHg, 1014.9 hPa
Clouds: Clear
Visibility: 10 miles, 16 km
2024/06/24 19:53 KDLS 241953Z AUTO 34014KT 10SM CLR 26/06 A2997 RMK AO2 SLP146 T02560056
KTTD - Troutdale, Oregon, USA
Distance from station: W 60mi, 96km
Updated: Mon, 24-Jun-2024 12:53pm PDT
Clear
Clear
 Wind from varies
Wind: varies 6 mph, 9 km/h
Temperature: 72°F, 22°C
Dew Point: 48°F, 9°C
Humidity: 44%
Barometer: 30.06 inHg, 1017.9 hPa
Clouds: Clear
Visibility: 10 miles, 16 km
2024/06/24 19:53 KTTD 241953Z VRB05KT 10SM CLR 22/09 A3006 RMK AO2 SLP179 T02170094
 
KPDX - Portland, Oregon, USA
Distance from station: W 69mi, 111km
Updated: Mon, 24-Jun-2024 12:53pm PDT
Few Clouds
Few Clouds
 Wind from WNW
Wind: WNW 9 mph, 15 km/h
Temperature: 70°F, 21°C
Dew Point: 46°F, 8°C
Humidity: 43%
Barometer: 30.07 inHg, 1018.3 hPa
Clouds: Few Clouds
Visibility: 10 miles, 16 km
Cloud details: Few Clouds 3000 ft
2024/06/24 19:53 KPDX 241953Z 30008KT 10SM FEW030 21/08 A3007 RMK AO2 SLP182 T02110078
KVUO - Vancouver, Washington, USA
Distance from station: W 71mi, 114km
Updated: Mon, 24-Jun-2024 12:53pm PDT
Clear
Clear
 
Temperature: 70°F, 21°C
Dew Point: 46°F, 8°C
Humidity: 43%
Barometer: 30.09 inHg, 1019 hPa
Clouds: Clear
Visibility: 10 miles, 16 km
2024/06/24 19:53 KVUO 241953Z AUTO 10SM CLR 21/08 A3009 RMK AO2 SLP188 T02060078
 
KYKM - Yakima, Washington, USA
Distance from station: NNE 74mi, 120km
Updated: Mon, 24-Jun-2024 12:53pm PDT
Clear
Clear
 Wind from ENE
Wind: ENE 6 mph, 9 km/h
Temperature: 73°F, 23°C
Dew Point: 43°F, 6°C
Humidity: 33%
Barometer: 29.99 inHg, 1015.6 hPa
Clouds: Clear
Visibility: 10 miles, 16 km
2024/06/24 19:53 KYKM 241953Z 07005KT 10SM CLR 23/06 A2999 RMK AO2 SLP151 T02330056
KUAO - Aurora, Oregon, USA
Distance from station: WSW 80mi, 129km
Updated: Mon, 24-Jun-2024 12:53pm PDT
Clear
Clear
 Wind from NNE
Wind: NNE 7 mph, 11 km/h
Temperature: 70°F, 21°C
Dew Point: 48°F, 9°C
Humidity: 46%
Barometer: 30.07 inHg, 1018.3 hPa
Clouds: Clear
Visibility: 10 miles, 16 km
2024/06/24 19:53 KUAO 241953Z 03006KT 10SM CLR 21/09 A3007 RMK AO2 SLP180 T02110089
 
KSPB - Scappoose, Oregon, USA
Distance from station: W 82mi, 132km
Updated: Mon, 24-Jun-2024 12:53pm PDT
Clear
Clear
 
Barometer: 30.06 inHg, 1017.9 hPa
Clouds: Clear
Visibility: 10 miles, 16 km
2024/06/24 19:53 KSPB 241953Z AUTO 10SM CLR A3006 RMK AO2 SLPNO
KHIO - Hillsboro/Portld, Oregon, USA
Distance from station: W 85mi, 137km
Updated: Mon, 24-Jun-2024 12:53pm PDT
Partly cloudy
Partly cloudy
 Wind from calm
Wind: Calm
Temperature: 70°F, 21°C
Dew Point: 48°F, 9°C
Humidity: 46%
Barometer: 30.07 inHg, 1018.3 hPa
Clouds: Partly cloudy
Visibility: 10 miles, 16 km
Cloud details: Partly cloudy 4000 ft
2024/06/24 19:53 KHIO 241953Z 00000KT 10SM SCT040 21/09 A3007 RMK AO2 SLP180 T02060094
 
KKLS - Kelso Longveiw, Washington, USA
Distance from station: WNW 90mi, 145km
Updated: Mon, 24-Jun-2024 12:56pm PDT
Partly cloudy
Partly cloudy
 Wind from NW
Wind: NW 10 mph, 17 km/h
Temperature: 68°F, 20°C
Dew Point: 48°F, 9°C
Humidity: 49%
Barometer: 30.10 inHg, 1019.3 hPa
Clouds: Partly cloudy
Visibility: 10 miles, 16 km
Cloud details: Partly cloudy 3700 ft
2024/06/24 19:56 KKLS 241956Z AUTO 32009KT 10SM SCT037 20/09 A3010 RMK AO2 SLP196 T02000094
KRDM - Redmond, Oregon, USA
Distance from station: S 93mi, 149km
Updated: Mon, 24-Jun-2024 12:56pm PDT
Clear
Clear
 Wind from NW
Wind: NW 5 mph, 7 km/h
Temperature: 77°F, 25°C
Dew Point: 34°F, 1°C
Humidity: 21%
Barometer: 30.01 inHg, 1016.3 hPa
Clouds: Clear
Visibility: 10 miles, 16 km
2024/06/24 19:56 KRDM 241956Z 32004KT 10SM CLR 25/01 A3001 RMK AO2 SLP140 T02500011
 
KHRI - Hermiston, Oregon, USA
Distance from station: E 94mi, 151km
Updated: Mon, 24-Jun-2024 12:53pm PDT
Clear
Clear
 
Temperature: 77°F, 25°C
Dew Point: 45°F, 7°C
Humidity: 32%
Barometer: 29.98 inHg, 1015.2 hPa
Clouds: Clear
Visibility: 10 miles, 16 km
2024/06/24 19:53 KHRI 241953Z AUTO 10SM CLR 25/07 A2998 RMK AO2 SLP148 T02500067
KMMV - Mcminnville, Oregon, USA
Distance from station: WSW 98mi, 158km
Updated: Mon, 24-Jun-2024 12:53pm PDT
Clear
Clear
 Wind from NE
Wind: NE 6 mph, 9 km/h
Temperature: 72°F, 22°C
Dew Point: 52°F, 11°C
Humidity: 50%
Barometer: 30.06 inHg, 1017.9 hPa
Clouds: Clear
Visibility: 10 miles, 16 km
2024/06/24 19:53 KMMV 241953Z AUTO 05005KT 10SM CLR 22/11 A3006 RMK AO2 SLP176 T02170106
 
KSLE - Salem, Oregon, USA
Distance from station: WSW 100mi, 161km
Updated: Mon, 24-Jun-2024 12:56pm PDT
Clear
Clear
 Wind from NNE
Wind: NNE 9 mph, 15 km/h
Temperature: 73°F, 23°C
Dew Point: 48°F, 9°C
Humidity: 41%
Barometer: 30.04 inHg, 1017.3 hPa
Clouds: Clear
Visibility: 10 miles, 16 km
2024/06/24 19:56 KSLE 241956Z 02008KT 10SM CLR 23/09 A3004 RMK AO2 SLP171 T02330089
KBDN - Bend, Oregon, USA
Distance from station: S 103mi, 166km
Updated: Mon, 24-Jun-2024 1:35pm PDT
Clear
Clear
 Wind from NNW
Wind: NNW 8 mph, 13 km/h, Gust: 15 mph, 24 km/h
Temperature: 79°F, 26°C
Dew Point: 34°F, 1°C
Humidity: 20%
Barometer: 30.00 inHg, 1015.9 hPa
Clouds: Clear
Visibility: 10 miles, 16 km
2024/06/24 20:35 KBDN 242035Z AUTO 34007G13KT 310V010 10SM CLR 26/01 A3000 RMK AO2
 
KELN - Ellensburg, Washington, USA
Distance from station: NNE 104mi, 168km
Updated: Mon, 24-Jun-2024 12:53pm PDT
Clear
Clear
 Wind from W
Wind: W 5 mph, 7 km/h
Temperature: 72°F, 22°C
Dew Point: 41°F, 5°C
Humidity: 33%
Barometer: 30.00 inHg, 1015.9 hPa
Clouds: Clear
Visibility: 10 miles, 16 km
2024/06/24 19:53 KELN 241953Z AUTO 26004KT 10SM CLR 22/05 A3000 RMK AO2 SLP152 T02220050
KPSC - Pasco, Washington, USA
Distance from station: ENE 110mi, 177km
Updated: Mon, 24-Jun-2024 12:53pm PDT
Clear
Clear
 Wind from varies
Wind: varies 7 mph, 11 km/h
Temperature: 77°F, 25°C
Dew Point: 46°F, 8°C
Humidity: 34%
Barometer: 29.98 inHg, 1015.2 hPa
Clouds: Clear
Visibility: 9 miles, 14 km
2024/06/24 19:53 KPSC 241953Z VRB06KT 9SM CLR 25/08 A2998 RMK AO2 SLP150 T02500083
 
KPDT - Pendleton, Oregon, USA
Distance from station: E 114mi, 183km
Updated: Mon, 24-Jun-2024 12:53pm PDT
Clear
Clear
 Wind from W
Wind: W 9 mph, 15 km/h, Gust: 20 mph, 31 km/h
Temperature: 75°F, 24°C
Dew Point: 43°F, 6°C
Humidity: 31%
Barometer: 30.00 inHg, 1015.9 hPa
Clouds: Clear
Visibility: 10 miles, 16 km
2024/06/24 19:53 KPDT 241953Z 28008G17KT 260V320 10SM CLR 24/06 A3000 RMK AO2 SLP146 T02390061
KCLS - Chehalis Central, Washington, USA
Distance from station: NW 115mi, 184km
Updated: Mon, 24-Jun-2024 1:35pm PDT
Overcast
Overcast
 Wind from calm
Wind: Calm
Temperature: 64°F, 18°C
Dew Point: 50°F, 10°C
Humidity: 60%
Barometer: 30.10 inHg, 1019.3 hPa
Clouds: Overcast
Visibility: 10 miles, 16 km
Cloud details: Few Clouds 4100 ft
Overcast 4900 ft
2024/06/24 20:35 KCLS 242035Z AUTO 00000KT 10SM FEW041 OVC049 18/10 A3010 RMK AO2
 
KPLU - Puyallup/Thun, Washington, USA
Distance from station: NNW 117mi, 188km
Updated: Mon, 24-Jun-2024 1:35pm PDT
Overcast
Overcast
 Wind from calm
Wind: Calm
Temperature: 64°F, 18°C
Dew Point: 50°F, 10°C
Humidity: 60%
Barometer: 30.11 inHg, 1019.6 hPa
Clouds: Overcast
Visibility: 10 miles, 16 km
Cloud details: Mostly cloudy 3600 ft
Overcast 4100 ft
2024/06/24 20:35 KPLU 242035Z AUTO 00000KT 10SM BKN036 OVC041 18/10 A3011 RMK AO2
KCVO - Corvallis Muni A, Oregon, USA
Distance from station: WNW 167mi, 269km
Updated: Mon, 24-Jun-2024 12:56pm PDT
Clear
Clear
 Wind from NE
Wind: NE 9 mph, 15 km/h
Temperature: 72°F, 22°C
Dew Point: 48°F, 9°C
Humidity: 44%
Barometer: 30.05 inHg, 1017.6 hPa
Clouds: Clear
Visibility: 10 miles, 16 km
2024/06/24 19:56 KCVO 241956Z AUTO 04008KT 10SM CLR 22/09 A3005 RMK AO2 SLP177 T02220094
 
KEUG - Eugene, Oregon, USA
Distance from station: W 193mi, 310km
Updated: Mon, 24-Jun-2024 12:54pm PDT
Few Clouds
Few Clouds
 Wind from NNW
Wind: NNW 12 mph, 19 km/h
Temperature: 73°F, 23°C
Dew Point: 52°F, 11°C
Humidity: 47%
Barometer: 30.04 inHg, 1017.3 hPa
Clouds: Few Clouds
Visibility: 10 miles, 16 km
Cloud details: Few Clouds 5000 ft
2024/06/24 19:54 KEUG 241954Z 34010KT 310V040 10SM FEW050 23/11 A3004 RMK AO2 SLP172 T02330106
KRBG - Roseburg, Oregon, USA
Distance from station: WSW 196mi, 315km
Updated: Mon, 24-Jun-2024 12:53pm PDT
Clear
Clear
 Wind from N
Wind: N 3 mph, 6 km/h
Temperature: 72°F, 22°C
Dew Point: 52°F, 11°C
Humidity: 50%
Barometer: 30.00 inHg, 1015.9 hPa
Clouds: Clear
Visibility: 10 miles, 16 km
2024/06/24 19:53 KRBG 241953Z AUTO 35003KT 10SM CLR 22/11 A3000 RMK AO2 SLP159 T02220106
 
KLKV - Lakeview, Oregon, USA
Distance from station: SSE 239mi, 385km
Updated: Mon, 24-Jun-2024 12:53pm PDT
Clear
Clear
 Wind from S
Wind: S 10 mph, 17 km/h
Temperature: 84°F, 29°C
Dew Point: 36°F, 2°C
Humidity: 18%
Barometer: 30.06 inHg, 1017.9 hPa
Clouds: Clear
Visibility: 10 miles, 16 km
2024/06/24 19:53 KLKV 241953Z AUTO 19009KT 10SM CLR 29/02 A3006 RMK AO2 SLP139 T02940017
KMFR - Medford, Oregon, USA
Distance from station: WSW 241mi, 388km
Updated: Mon, 24-Jun-2024 12:53pm PDT
Clear
Clear
 
Temperature: 81°F, 27°C
Dew Point: 45°F, 7°C
Humidity: 28%
Barometer: 29.94 inHg, 1013.9 hPa
Clouds: Clear
Visibility: 10 miles, 16 km
2024/06/24 19:53 KMFR 241953Z 10SM CLR 27/07 A2994 RMK AO2 SLP129 T02670072
 
KBNO - Burns, Oregon, USA
Distance from station: ESE 249mi, 280km
Updated: Mon, 24-Jun-2024 12:53pm PDT
Clear
Clear
 Wind from WSW
Wind: WSW 7 mph, 11 km/h
Temperature: 84°F, 29°C
Dew Point: 39°F, 4°C
Humidity: 20%
Barometer: 30.02 inHg, 1016.6 hPa
Clouds: Clear
Visibility: 10 miles, 16 km
2024/06/24 19:53 KBNO 241953Z AUTO 24006KT 10SM CLR 29/04 A3002 RMK AO2 SLP127 T02890044
KLMT - Klamath Falls, Oregon, USA
Distance from station: SSW 266mi, 428km
Updated: Mon, 24-Jun-2024 12:53pm PDT
Clear
Clear
 Wind from WSW
Wind: WSW 10 mph, 17 km/h
Temperature: 82°F, 28°C
Dew Point: 46°F, 8°C
Humidity: 28%
Barometer: 30.02 inHg, 1016.6 hPa
Clouds: Clear
Visibility: 10 miles, 16 km
2024/06/24 19:53 KLMT 241953Z 24009KT 10SM CLR 28/08 A3002 RMK AO2 SLP124 T02830083